createdAt,value
2018-04-29T00:01:33.904Z,5.80
2018-04-29T00:06:36.166Z,7.50
2018-04-29T00:11:37.636Z,6.87
2018-04-29T00:16:40.081Z,6.97
2018-04-29T00:21:41.615Z,6.90
2018-04-29T00:26:43.301Z,7.50
2018-04-29T00:31:44.959Z,6.97
2018-04-29T00:36:46.483Z,5.70
2018-04-29T00:41:47.995Z,6.83
2018-04-29T00:46:49.621Z,6.87
2018-04-29T00:52:08.488Z,6.77
2018-04-29T00:57:10.086Z,6.30
2018-04-29T01:02:12.391Z,6.13
2018-04-29T01:07:14.693Z,6.03
2018-04-29T01:12:16.221Z,5.70
2018-04-29T01:17:21.534Z,5.80
2018-04-29T01:22:24.123Z,6.10
2018-04-29T01:27:26.967Z,5.70
2018-04-29T01:32:30.080Z,5.93
2018-04-29T01:37:33.211Z,5.87
2018-04-29T01:42:34.811Z,6.03
2018-04-29T01:47:36.335Z,6.27
2018-04-29T01:52:37.853Z,7.27
2018-04-29T01:57:46.405Z,8.80
2018-04-29T02:02:50.153Z,7.43
2018-04-29T02:07:51.700Z,7.30
2018-04-29T02:12:53.232Z,7.10
2018-04-29T02:17:54.779Z,6.63
2018-04-29T02:22:56.414Z,6.77
2018-04-29T02:27:58.730Z,6.07
2018-04-29T02:33:00.271Z,6.80
2018-04-29T02:38:02.515Z,8.70
2018-04-29T02:43:03.986Z,7.13
2018-04-29T02:48:05.556Z,7.83
2018-04-29T02:53:07.192Z,7.90
2018-04-29T02:58:08.702Z,7.30
2018-04-29T03:03:10.276Z,8.03
2018-04-29T03:08:11.825Z,7.30
2018-04-29T03:13:13.396Z,7.70
2018-04-29T03:18:14.946Z,7.40
2018-04-29T03:23:16.463Z,7.20
2018-04-29T03:28:17.995Z,8.67
2018-04-29T03:33:19.450Z,7.97
2018-04-29T03:38:20.998Z,8.30
2018-04-29T03:43:22.730Z,9.47
2018-04-29T03:48:24.261Z,8.10
2018-04-29T03:53:25.780Z,8.73
2018-04-29T04:14:33.768Z,9.37
2018-04-29T04:19:35.292Z,8.80
2018-04-29T04:24:36.888Z,8.93
2018-04-29T04:29:38.447Z,9.60
2018-04-29T04:34:40.017Z,10.00
2018-04-29T04:39:41.563Z,10.90
2018-04-29T04:44:43.156Z,10.70
2018-04-29T04:49:44.740Z,9.87
2018-04-29T04:54:46.685Z,9.90
2018-04-29T04:59:48.423Z,9.50
2018-04-29T05:04:50.023Z,9.07
2018-04-29T05:09:51.641Z,8.73
2018-04-29T05:14:53.340Z,8.70
2018-04-29T05:19:55.653Z,8.83
2018-04-29T05:24:57.219Z,7.87
2018-04-29T05:29:58.764Z,7.80
2018-04-29T05:35:00.952Z,9.57
2018-04-29T05:40:02.560Z,8.53
2018-04-29T05:45:04.392Z,9.13
2018-04-29T05:50:06.633Z,10.20
2018-04-29T05:55:08.286Z,8.23
2018-04-29T06:00:09.898Z,11.37
2018-04-29T06:05:11.455Z,12.33
2018-04-29T06:10:13.046Z,14.67
2018-04-29T06:15:15.377Z,15.80
2018-04-29T06:20:16.912Z,15.43
2018-04-29T06:25:19.242Z,15.90
2018-04-29T06:30:20.770Z,13.37
2018-04-29T06:35:23.116Z,12.83
2018-04-29T06:40:24.657Z,12.63
2018-04-29T06:45:26.209Z,12.80
2018-04-29T06:50:27.809Z,8.93
2018-04-29T06:55:29.398Z,8.43
2018-04-29T07:00:30.872Z,7.50
2018-04-29T07:05:32.412Z,7.50
2018-04-29T07:10:34.143Z,8.10
2018-04-29T07:15:35.790Z,8.10
2018-04-29T07:20:38.044Z,7.80
2018-04-29T07:25:39.561Z,8.67
2018-04-29T07:30:41.849Z,11.03
2018-04-29T07:35:43.344Z,10.03
2018-04-29T07:40:44.988Z,9.40
2018-04-29T07:45:46.699Z,12.00
2018-04-29T07:50:48.269Z,12.50
2018-04-29T07:55:49.815Z,11.60
2018-04-29T08:00:51.494Z,11.33
2018-04-29T08:05:53.766Z,8.80
2018-04-29T08:10:56.038Z,9.47
2018-04-29T08:15:58.262Z,8.80
2018-04-29T08:20:59.832Z,8.30
2018-04-29T08:26:01.369Z,9.00
2018-04-29T08:31:04.220Z,11.10
2018-04-29T08:36:05.877Z,11.40
2018-04-29T08:41:07.676Z,10.57
2018-04-29T08:46:09.234Z,11.03
2018-04-29T08:51:10.809Z,9.00
2018-04-29T08:56:12.375Z,9.90
2018-04-29T09:01:13.906Z,8.80
2018-04-29T09:06:15.542Z,10.27
2018-04-29T09:11:17.233Z,7.43
2018-04-29T09:16:18.918Z,8.63
2018-04-29T09:21:20.600Z,8.03
2018-04-29T09:26:22.254Z,8.53
2018-04-29T09:31:23.950Z,8.93
2018-04-29T09:36:28.159Z,8.70
2018-04-29T09:41:33.465Z,9.40
2018-04-29T09:46:38.448Z,13.20
2018-04-29T09:51:42.015Z,8.90
2018-04-29T09:56:46.160Z,9.77
2018-04-29T10:01:53.257Z,9.50
2018-04-29T10:07:04.284Z,9.97
2018-04-29T10:12:10.201Z,8.83
2018-04-29T10:17:17.964Z,8.80
2018-04-29T10:22:20.664Z,8.30
2018-04-29T10:27:22.352Z,9.30
2018-04-29T10:32:24.212Z,9.57
2018-04-29T10:37:26.157Z,10.67
2018-04-29T10:48:03.823Z,9.73
2018-04-29T10:53:05.891Z,10.00
2018-04-29T10:58:14.340Z,11.17
2018-04-29T11:03:20.727Z,9.50
2018-04-29T11:08:27.214Z,9.87
2018-04-29T11:13:34.065Z,10.50
2018-04-29T11:18:43.934Z,9.97
2018-04-29T11:23:50.180Z,9.53
2018-04-29T11:28:56.592Z,9.53
2018-04-29T11:34:04.463Z,10.27
2018-04-29T11:39:07.590Z,11.07
2018-04-29T11:44:09.195Z,10.33
2018-04-29T11:49:11.143Z,11.20
2018-04-29T11:54:13.585Z,10.27
2018-04-29T11:59:15.295Z,10.30
2018-04-29T12:04:17.148Z,9.57
2018-04-29T12:09:19.403Z,9.53
2018-04-29T12:14:25.679Z,10.37
2018-04-29T12:19:38.031Z,9.67
2018-04-29T12:24:45.061Z,9.90
2018-04-29T12:29:51.929Z,9.87
2018-04-29T12:35:00.039Z,8.43
2018-04-29T12:40:07.525Z,9.33
2018-04-29T12:50:59.432Z,8.70
2018-04-29T12:56:03.588Z,8.40
2018-04-29T13:06:54.055Z,9.40
2018-04-29T13:11:55.664Z,9.23
2018-04-29T13:17:00.246Z,9.93
2018-04-29T13:22:05.397Z,8.43
2018-04-29T13:27:08.276Z,7.87
2018-04-29T13:32:09.880Z,8.53
2018-04-29T13:37:11.427Z,7.40
2018-04-29T13:42:13.008Z,8.90
2018-04-29T13:58:26.639Z,6.83
2018-04-29T14:03:28.487Z,5.97
2018-04-29T14:08:30.955Z,6.40
2018-04-29T14:13:32.659Z,6.77
2018-04-29T14:24:19.430Z,6.97
2018-04-29T14:29:21.813Z,7.03
2018-04-29T14:34:23.384Z,6.80
2018-04-29T14:39:25.685Z,7.40
2018-04-29T14:44:29.857Z,7.13
2018-04-29T14:49:48.162Z,6.80
2018-04-29T14:54:50.992Z,5.97
2018-04-29T14:59:52.650Z,6.10
2018-04-29T15:04:54.196Z,6.50
2018-04-29T15:09:56.449Z,6.80
2018-04-29T15:15:00.319Z,6.60
2018-04-29T15:20:02.080Z,5.97
2018-04-29T15:25:13.214Z,5.20
2018-04-29T15:30:15.589Z,6.10
2018-04-29T15:35:17.148Z,5.37
2018-04-29T15:40:18.705Z,5.30
2018-04-29T15:45:30.255Z,5.90
2018-04-29T15:50:32.683Z,6.10
2018-04-29T15:55:34.738Z,5.47
2018-04-29T16:00:36.300Z,5.80
2018-04-29T16:05:38.323Z,4.60
2018-04-29T16:10:40.858Z,5.73
2018-04-29T16:26:44.689Z,5.73
2018-04-29T16:31:46.779Z,5.60
2018-04-29T16:36:49.272Z,6.63
2018-04-29T16:41:51.614Z,5.30
2018-04-29T16:46:53.380Z,6.07
2018-04-29T16:51:59.580Z,6.50
2018-04-29T16:57:02.091Z,6.03
2018-04-29T17:02:05.463Z,6.27
2018-04-29T17:12:42.853Z,5.70
2018-04-29T17:34:30.417Z,6.90
2018-04-29T17:39:32.297Z,6.83
2018-04-29T17:44:34.754Z,7.00
2018-04-29T17:49:38.249Z,7.03
2018-04-29T17:55:08.760Z,7.20
2018-04-29T18:00:32.981Z,7.30
2018-04-29T18:05:34.655Z,6.97
2018-04-29T18:21:48.410Z,7.20
2018-04-29T18:26:50.001Z,7.73
2018-04-29T18:31:54.154Z,8.17
2018-04-29T18:36:56.303Z,7.40
2018-04-29T18:41:58.628Z,7.83
2018-04-29T18:47:00.943Z,6.80
2018-04-29T18:52:03.685Z,7.13
2018-04-29T18:57:06.536Z,7.73
2018-04-29T19:02:08.643Z,7.60
2018-04-29T19:07:10.258Z,7.10
2018-04-29T19:12:12.016Z,8.13
2018-04-29T19:17:14.039Z,7.47
2018-04-29T19:22:16.051Z,7.10
2018-04-29T19:27:19.332Z,7.40
2018-04-29T19:32:21.241Z,6.63
2018-04-29T19:37:23.372Z,6.90
2018-04-29T19:42:25.258Z,7.13
2018-04-29T19:47:28.687Z,6.57
2018-04-29T19:52:30.485Z,8.90
2018-04-29T19:57:32.527Z,7.80
2018-04-29T20:02:35.051Z,8.00
2018-04-29T20:07:36.914Z,7.50
2018-04-29T20:12:39.103Z,8.20
2018-04-29T20:17:40.926Z,7.60
2018-04-29T20:22:43.218Z,8.73
2018-04-29T20:27:46.357Z,8.07
2018-04-29T20:32:48.529Z,7.97
2018-04-29T20:37:50.971Z,8.90
2018-04-29T20:42:53.826Z,8.27
2018-04-29T20:47:56.003Z,8.93
2018-04-29T20:52:58.099Z,8.60
2018-04-29T20:58:00.388Z,8.60
2018-04-29T21:03:02.504Z,8.77
2018-04-29T21:08:05.371Z,8.00
2018-04-29T21:13:07.146Z,8.50
2018-04-29T21:18:09.643Z,7.30
2018-04-29T21:23:11.971Z,8.60
2018-04-29T21:28:14.250Z,10.10
2018-04-29T21:33:16.540Z,8.67
2018-04-29T21:38:19.053Z,9.20
2018-04-29T21:43:20.633Z,9.17
2018-04-29T21:48:22.172Z,8.63
2018-04-29T21:53:23.753Z,8.90
2018-04-29T21:58:25.340Z,9.43
2018-04-29T22:03:26.880Z,9.57
2018-04-29T22:08:28.450Z,9.40
2018-04-29T22:13:30.085Z,9.80
2018-04-29T22:18:31.644Z,8.83
2018-04-29T22:23:33.163Z,9.20
2018-04-29T22:28:34.731Z,9.20
2018-04-29T22:33:36.278Z,9.30
2018-04-29T22:38:38.561Z,10.10
2018-04-29T22:43:40.836Z,10.67
2018-04-29T22:48:42.355Z,9.50
2018-04-29T22:53:43.911Z,10.43
2018-04-29T22:58:45.608Z,9.70
2018-04-29T23:03:47.124Z,9.30
2018-04-29T23:08:49.451Z,9.00
2018-04-29T23:13:51.035Z,10.50
2018-04-29T23:18:52.757Z,9.93
2018-04-29T23:23:55.060Z,9.50
2018-04-29T23:28:56.643Z,10.20
2018-04-29T23:33:58.200Z,9.40
2018-04-29T23:38:59.743Z,8.77
2018-04-29T23:44:02.018Z,9.50
2018-04-29T23:49:04.419Z,9.57
2018-04-29T23:54:06.700Z,11.53
2018-04-29T23:59:08.976Z,8.00
